sensor_id;sensor_type;location;lat;lon;timestamp;temperature;humidity
3172;DHT22;1597;51.572;6.992;2023-09-19T00:00:38;17.40;81.90
3172;DHT22;1597;51.572;6.992;2023-09-19T00:03:07;17.30;84.90
3172;DHT22;1597;51.572;6.992;2023-09-19T00:05:36;17.30;85.20
3172;DHT22;1597;51.572;6.992;2023-09-19T00:08:10;17.30;85.10
3172;DHT22;1597;51.572;6.992;2023-09-19T00:10:36;17.20;84.50
3172;DHT22;1597;51.572;6.992;2023-09-19T00:13:04;17.20;86.00
3172;DHT22;1597;51.572;6.992;2023-09-19T00:15:44;17.30;85.90
3172;DHT22;1597;51.572;6.992;2023-09-19T00:18:15;17.30;83.10
3172;DHT22;1597;51.572;6.992;2023-09-19T00:20:41;17.30;80.70
3172;DHT22;1597;51.572;6.992;2023-09-19T00:23:07;17.20;81.70
3172;DHT22;1597;51.572;6.992;2023-09-19T00:25:37;17.20;82.30
3172;DHT22;1597;51.572;6.992;2023-09-19T00:28:06;17.10;84.00
3172;DHT22;1597;51.572;6.992;2023-09-19T00:30:36;17.00;84.10
3172;DHT22;1597;51.572;6.992;2023-09-19T00:33:04;17.00;84.50
3172;DHT22;1597;51.572;6.992;2023-09-19T00:35:32;17.00;79.90
3172;DHT22;1597;51.572;6.992;2023-09-19T00:37:58;17.00;82.90
3172;DHT22;1597;51.572;6.992;2023-09-19T00:40:24;17.00;81.70
3172;DHT22;1597;51.572;6.992;2023-09-19T00:42:51;17.00;78.60
3172;DHT22;1597;51.572;6.992;2023-09-19T00:45:18;17.00;78.30
3172;DHT22;1597;51.572;6.992;2023-09-19T00:47:50;16.90;79.90
3172;DHT22;1597;51.572;6.992;2023-09-19T00:50:18;16.90;79.10
3172;DHT22;1597;51.572;6.992;2023-09-19T00:52:46;16.90;80.30
3172;DHT22;1597;51.572;6.992;2023-09-19T00:55:15;16.80;83.80
3172;DHT22;1597;51.572;6.992;2023-09-19T00:57:42;16.80;84.30
3172;DHT22;1597;51.572;6.992;2023-09-19T01:00:10;16.80;83.30
3172;DHT22;1597;51.572;6.992;2023-09-19T01:02:44;16.80;85.80
3172;DHT22;1597;51.572;6.992;2023-09-19T01:05:10;16.70;86.50
3172;DHT22;1597;51.572;6.992;2023-09-19T01:07:38;16.70;85.20
3172;DHT22;1597;51.572;6.992;2023-09-19T01:10:10;16.70;86.20
3172;DHT22;1597;51.572;6.992;2023-09-19T01:21:17;16.70;88.60
3172;DHT22;1597;51.572;6.992;2023-09-19T01:30:21;16.60;89.30
3172;DHT22;1597;51.572;6.992;2023-09-19T01:32:50;16.60;90.80
3172;DHT22;1597;51.572;6.992;2023-09-19T01:35:18;16.60;88.90
3172;DHT22;1597;51.572;6.992;2023-09-19T01:37:44;16.60;90.60
3172;DHT22;1597;51.572;6.992;2023-09-19T01:40:13;16.50;91.40
3172;DHT22;1597;51.572;6.992;2023-09-19T01:42:56;16.50;91.80
3172;DHT22;1597;51.572;6.992;2023-09-19T01:45:38;16.60;91.90
3172;DHT22;1597;51.572;6.992;2023-09-19T01:48:40;16.50;90.90
3172;DHT22;1597;51.572;6.992;2023-09-19T01:51:10;16.50;90.90
3172;DHT22;1597;51.572;6.992;2023-09-19T01:53:57;16.50;92.00
3172;DHT22;1597;51.572;6.992;2023-09-19T01:56:32;16.50;90.40
3172;DHT22;1597;51.572;6.992;2023-09-19T01:59:06;16.50;91.10
3172;DHT22;1597;51.572;6.992;2023-09-19T02:01:34;16.50;90.60
3172;DHT22;1597;51.572;6.992;2023-09-19T02:04:02;16.40;90.60
3172;DHT22;1597;51.572;6.992;2023-09-19T02:06:28;16.40;90.30
3172;DHT22;1597;51.572;6.992;2023-09-19T02:08:54;16.30;90.20
3172;DHT22;1597;51.572;6.992;2023-09-19T02:11:22;16.30;89.70
3172;DHT22;1597;51.572;6.992;2023-09-19T02:13:47;16.20;90.50
3172;DHT22;1597;51.572;6.992;2023-09-19T02:16:16;16.20;89.00
3172;DHT22;1597;51.572;6.992;2023-09-19T02:18:42;16.20;89.90
3172;DHT22;1597;51.572;6.992;2023-09-19T02:21:08;16.10;86.50
3172;DHT22;1597;51.572;6.992;2023-09-19T02:23:35;16.10;85.60
3172;DHT22;1597;51.572;6.992;2023-09-19T02:26:01;16.10;81.90
3172;DHT22;1597;51.572;6.992;2023-09-19T02:28:27;16.10;81.70
3172;DHT22;1597;51.572;6.992;2023-09-19T02:30:57;16.10;76.70
3172;DHT22;1597;51.572;6.992;2023-09-19T02:33:24;16.00;78.40
3172;DHT22;1597;51.572;6.992;2023-09-19T02:35:54;16.00;73.90
3172;DHT22;1597;51.572;6.992;2023-09-19T02:38:20;16.00;76.00
3172;DHT22;1597;51.572;6.992;2023-09-19T02:40:50;16.00;74.00
3172;DHT22;1597;51.572;6.992;2023-09-19T02:43:16;16.10;70.00
3172;DHT22;1597;51.572;6.992;2023-09-19T02:45:42;16.10;69.60
3172;DHT22;1597;51.572;6.992;2023-09-19T02:48:08;16.10;67.20
3172;DHT22;1597;51.572;6.992;2023-09-19T02:50:34;16.10;68.70
3172;DHT22;1597;51.572;6.992;2023-09-19T02:53:00;16.10;67.00
3172;DHT22;1597;51.572;6.992;2023-09-19T02:55:26;16.10;64.90
3172;DHT22;1597;51.572;6.992;2023-09-19T02:57:53;16.10;66.90
3172;DHT22;1597;51.572;6.992;2023-09-19T03:00:22;16.10;61.70
3172;DHT22;1597;51.572;6.992;2023-09-19T03:02:49;16.10;63.70
3172;DHT22;1597;51.572;6.992;2023-09-19T03:05:17;16.10;62.70
3172;DHT22;1597;51.572;6.992;2023-09-19T03:07:43;16.00;64.00
3172;DHT22;1597;51.572;6.992;2023-09-19T03:10:11;16.00;63.30
3172;DHT22;1597;51.572;6.992;2023-09-19T03:12:37;16.00;64.90
3172;DHT22;1597;51.572;6.992;2023-09-19T03:15:03;16.00;65.70
3172;DHT22;1597;51.572;6.992;2023-09-19T03:17:30;16.10;60.30
3172;DHT22;1597;51.572;6.992;2023-09-19T03:19:55;16.00;55.80
3172;DHT22;1597;51.572;6.992;2023-09-19T03:22:22;16.00;60.70
3172;DHT22;1597;51.572;6.992;2023-09-19T03:24:50;15.90;61.90
3172;DHT22;1597;51.572;6.992;2023-09-19T03:27:15;15.90;56.90
3172;DHT22;1597;51.572;6.992;2023-09-19T03:29:42;15.90;58.80
3172;DHT22;1597;51.572;6.992;2023-09-19T03:32:08;15.90;56.40
3172;DHT22;1597;51.572;6.992;2023-09-19T03:34:37;15.90;56.10
3172;DHT22;1597;51.572;6.992;2023-09-19T03:37:09;15.90;58.60
3172;DHT22;1597;51.572;6.992;2023-09-19T03:39:35;15.80;50.40
3172;DHT22;1597;51.572;6.992;2023-09-19T03:42:02;15.90;46.90
3172;DHT22;1597;51.572;6.992;2023-09-19T03:44:32;15.80;48.80
3172;DHT22;1597;51.572;6.992;2023-09-19T03:46:58;15.80;48.40
3172;DHT22;1597;51.572;6.992;2023-09-19T03:49:24;15.80;45.50
3172;DHT22;1597;51.572;6.992;2023-09-19T03:51:50;15.80;45.00
3172;DHT22;1597;51.572;6.992;2023-09-19T03:54:15;15.80;43.60
3172;DHT22;1597;51.572;6.992;2023-09-19T03:56:42;15.80;42.00
3172;DHT22;1597;51.572;6.992;2023-09-19T03:59:09;15.80;43.50
3172;DHT22;1597;51.572;6.992;2023-09-19T04:01:35;15.80;44.80
3172;DHT22;1597;51.572;6.992;2023-09-19T04:04:01;15.70;46.80
3172;DHT22;1597;51.572;6.992;2023-09-19T04:06:36;15.70;46.70
3172;DHT22;1597;51.572;6.992;2023-09-19T04:09:03;15.80;42.10
3172;DHT22;1597;51.572;6.992;2023-09-19T04:11:29;15.80;45.20
3172;DHT22;1597;51.572;6.992;2023-09-19T04:13:56;15.70;45.80
3172;DHT22;1597;51.572;6.992;2023-09-19T04:16:22;15.70;45.60
3172;DHT22;1597;51.572;6.992;2023-09-19T04:18:48;15.70;48.80
3172;DHT22;1597;51.572;6.992;2023-09-19T04:21:14;15.70;49.80
3172;DHT22;1597;51.572;6.992;2023-09-19T04:23:40;15.70;52.20
3172;DHT22;1597;51.572;6.992;2023-09-19T04:26:05;15.70;51.30
3172;DHT22;1597;51.572;6.992;2023-09-19T04:28:32;15.70;52.20
3172;DHT22;1597;51.572;6.992;2023-09-19T04:31:00;15.70;52.90
3172;DHT22;1597;51.572;6.992;2023-09-19T04:33:26;15.70;55.00
3172;DHT22;1597;51.572;6.992;2023-09-19T04:35:54;15.70;58.50
3172;DHT22;1597;51.572;6.992;2023-09-19T04:38:21;15.70;56.00
3172;DHT22;1597;51.572;6.992;2023-09-19T04:40:47;15.70;58.50
3172;DHT22;1597;51.572;6.992;2023-09-19T04:43:13;15.60;59.80
3172;DHT22;1597;51.572;6.992;2023-09-19T04:45:40;15.70;62.20
3172;DHT22;1597;51.572;6.992;2023-09-19T04:48:06;15.70;62.00
3172;DHT22;1597;51.572;6.992;2023-09-19T04:50:34;15.70;63.30
3172;DHT22;1597;51.572;6.992;2023-09-19T04:53:00;15.60;67.60
3172;DHT22;1597;51.572;6.992;2023-09-19T04:55:26;15.70;64.40
3172;DHT22;1597;51.572;6.992;2023-09-19T04:57:53;15.70;67.10
3172;DHT22;1597;51.572;6.992;2023-09-19T05:00:23;15.60;65.80
3172;DHT22;1597;51.572;6.992;2023-09-19T05:02:54;15.60;69.90
3172;DHT22;1597;51.572;6.992;2023-09-19T05:05:24;15.60;69.10
3172;DHT22;1597;51.572;6.992;2023-09-19T05:07:51;15.60;70.50
3172;DHT22;1597;51.572;6.992;2023-09-19T05:10:21;15.70;72.60
3172;DHT22;1597;51.572;6.992;2023-09-19T05:12:47;15.60;75.00
3172;DHT22;1597;51.572;6.992;2023-09-19T05:15:14;15.70;74.50
3172;DHT22;1597;51.572;6.992;2023-09-19T05:17:50;15.70;73.60
3172;DHT22;1597;51.572;6.992;2023-09-19T05:20:17;15.70;72.60
3172;DHT22;1597;51.572;6.992;2023-09-19T05:23:05;15.60;77.60
3172;DHT22;1597;51.572;6.992;2023-09-19T05:25:35;15.60;79.80
3172;DHT22;1597;51.572;6.992;2023-09-19T05:28:09;15.60;82.60
3172;DHT22;1597;51.572;6.992;2023-09-19T05:30:40;15.50;82.90
3172;DHT22;1597;51.572;6.992;2023-09-19T05:33:08;15.60;83.90
3172;DHT22;1597;51.572;6.992;2023-09-19T05:35:34;15.50;85.20
3172;DHT22;1597;51.572;6.992;2023-09-19T05:38:05;15.50;85.60
3172;DHT22;1597;51.572;6.992;2023-09-19T05:40:34;15.50;82.10
3172;DHT22;1597;51.572;6.992;2023-09-19T05:43:01;15.60;81.60
3172;DHT22;1597;51.572;6.992;2023-09-19T05:45:29;15.60;81.90
3172;DHT22;1597;51.572;6.992;2023-09-19T05:47:55;15.70;81.10
3172;DHT22;1597;51.572;6.992;2023-09-19T05:50:26;15.70;77.10
3172;DHT22;1597;51.572;6.992;2023-09-19T05:52:53;15.70;78.30
3172;DHT22;1597;51.572;6.992;2023-09-19T05:55:19;15.80;78.80
3172;DHT22;1597;51.572;6.992;2023-09-19T05:57:50;15.90;76.90
3172;DHT22;1597;51.572;6.992;2023-09-19T06:00:21;15.90;73.70
3172;DHT22;1597;51.572;6.992;2023-09-19T06:02:52;15.90;71.10
3172;DHT22;1597;51.572;6.992;2023-09-19T06:05:19;15.80;71.70
3172;DHT22;1597;51.572;6.992;2023-09-19T06:07:46;15.80;72.40
3172;DHT22;1597;51.572;6.992;2023-09-19T06:10:12;15.80;75.10
3172;DHT22;1597;51.572;6.992;2023-09-19T06:12:40;15.90;78.00
3172;DHT22;1597;51.572;6.992;2023-09-19T06:15:09;15.90;71.60
3172;DHT22;1597;51.572;6.992;2023-09-19T06:17:50;15.90;69.60
3172;DHT22;1597;51.572;6.992;2023-09-19T06:20:17;15.80;70.10
3172;DHT22;1597;51.572;6.992;2023-09-19T06:22:45;15.90;71.10
3172;DHT22;1597;51.572;6.992;2023-09-19T06:25:13;15.90;72.90
3172;DHT22;1597;51.572;6.992;2023-09-19T06:27:46;16.00;64.80
3172;DHT22;1597;51.572;6.992;2023-09-19T06:30:13;16.00;64.60
3172;DHT22;1597;51.572;6.992;2023-09-19T06:32:40;16.00;63.40
3172;DHT22;1597;51.572;6.992;2023-09-19T06:35:11;16.10;61.80
3172;DHT22;1597;51.572;6.992;2023-09-19T06:37:38;16.10;60.00
3172;DHT22;1597;51.572;6.992;2023-09-19T06:43:00;16.10;58.00
3172;DHT22;1597;51.572;6.992;2023-09-19T06:45:27;16.10;62.30
3172;DHT22;1597;51.572;6.992;2023-09-19T06:47:53;16.10;57.50
3172;DHT22;1597;51.572;6.992;2023-09-19T06:50:23;16.10;58.40
3172;DHT22;1597;51.572;6.992;2023-09-19T06:52:50;16.10;60.00
3172;DHT22;1597;51.572;6.992;2023-09-19T06:55:18;16.00;65.00
3172;DHT22;1597;51.572;6.992;2023-09-19T06:57:46;16.00;63.30
3172;DHT22;1597;51.572;6.992;2023-09-19T07:00:13;16.00;63.70
3172;DHT22;1597;51.572;6.992;2023-09-19T07:03:04;16.10;64.20
3172;DHT22;1597;51.572;6.992;2023-09-19T07:05:34;16.20;61.10
3172;DHT22;1597;51.572;6.992;2023-09-19T07:08:05;16.10;61.50
3172;DHT22;1597;51.572;6.992;2023-09-19T07:10:32;16.20;63.10
3172;DHT22;1597;51.572;6.992;2023-09-19T07:13:03;16.20;59.00
3172;DHT22;1597;51.572;6.992;2023-09-19T07:15:32;16.20;63.50
3172;DHT22;1597;51.572;6.992;2023-09-19T07:18:04;16.30;60.40
3172;DHT22;1597;51.572;6.992;2023-09-19T07:20:31;16.30;64.70
3172;DHT22;1597;51.572;6.992;2023-09-19T07:23:00;16.30;63.80
3172;DHT22;1597;51.572;6.992;2023-09-19T07:25:27;16.40;66.20
3172;DHT22;1597;51.572;6.992;2023-09-19T07:27:55;16.40;64.70
3172;DHT22;1597;51.572;6.992;2023-09-19T07:30:22;16.40;66.50
3172;DHT22;1597;51.572;6.992;2023-09-19T07:32:48;16.40;64.50
3172;DHT22;1597;51.572;6.992;2023-09-19T07:35:14;16.40;62.50
3172;DHT22;1597;51.572;6.992;2023-09-19T07:37:40;16.40;65.00
3172;DHT22;1597;51.572;6.992;2023-09-19T07:40:06;16.50;64.90
3172;DHT22;1597;51.572;6.992;2023-09-19T07:42:34;16.50;62.70
3172;DHT22;1597;51.572;6.992;2023-09-19T07:45:04;16.40;67.50
3172;DHT22;1597;51.572;6.992;2023-09-19T07:47:31;16.50;67.70
3172;DHT22;1597;51.572;6.992;2023-09-19T07:49:58;16.60;68.70
3172;DHT22;1597;51.572;6.992;2023-09-19T07:52:25;16.50;65.80
3172;DHT22;1597;51.572;6.992;2023-09-19T07:54:53;16.60;66.80
3172;DHT22;1597;51.572;6.992;2023-09-19T07:57:19;16.60;67.90
3172;DHT22;1597;51.572;6.992;2023-09-19T07:59:45;16.60;66.20
3172;DHT22;1597;51.572;6.992;2023-09-19T08:02:11;16.70;60.60
3172;DHT22;1597;51.572;6.992;2023-09-19T08:04:44;16.70;63.90
3172;DHT22;1597;51.572;6.992;2023-09-19T08:07:14;16.70;67.30
3172;DHT22;1597;51.572;6.992;2023-09-19T08:09:40;16.70;61.50
3172;DHT22;1597;51.572;6.992;2023-09-19T08:12:07;16.70;59.50
3172;DHT22;1597;51.572;6.992;2023-09-19T08:14:36;16.70;60.40
3172;DHT22;1597;51.572;6.992;2023-09-19T08:17:03;16.70;63.20
3172;DHT22;1597;51.572;6.992;2023-09-19T08:19:31;16.70;61.60
3172;DHT22;1597;51.572;6.992;2023-09-19T08:21:58;16.70;65.70
3172;DHT22;1597;51.572;6.992;2023-09-19T08:24:29;16.80;59.50
3172;DHT22;1597;51.572;6.992;2023-09-19T08:26:56;16.90;59.70
3172;DHT22;1597;51.572;6.992;2023-09-19T08:29:26;16.90;55.70
3172;DHT22;1597;51.572;6.992;2023-09-19T08:31:55;16.90;48.10
3172;DHT22;1597;51.572;6.992;2023-09-19T08:34:25;16.90;56.30
3172;DHT22;1597;51.572;6.992;2023-09-19T08:36:52;16.90;50.90
3172;DHT22;1597;51.572;6.992;2023-09-19T08:39:25;17.00;53.40
3172;DHT22;1597;51.572;6.992;2023-09-19T08:42:01;17.10;53.60
3172;DHT22;1597;51.572;6.992;2023-09-19T08:44:28;17.20;42.20
3172;DHT22;1597;51.572;6.992;2023-09-19T08:47:16;17.20;41.00
3172;DHT22;1597;51.572;6.992;2023-09-19T08:50:03;17.10;44.60
3172;DHT22;1597;51.572;6.992;2023-09-19T08:52:43;17.10;42.60
3172;DHT22;1597;51.572;6.992;2023-09-19T08:55:13;17.10;41.40
3172;DHT22;1597;51.572;6.992;2023-09-19T08:57:46;17.20;45.90
3172;DHT22;1597;51.572;6.992;2023-09-19T09:00:15;17.30;45.80
3172;DHT22;1597;51.572;6.992;2023-09-19T09:02:47;17.30;38.20
3172;DHT22;1597;51.572;6.992;2023-09-19T09:05:15;17.30;36.70
3172;DHT22;1597;51.572;6.992;2023-09-19T09:07:49;17.40;37.00
3172;DHT22;1597;51.572;6.992;2023-09-19T09:10:18;17.50;36.20
3172;DHT22;1597;51.572;6.992;2023-09-19T09:12:48;17.50;30.00
3172;DHT22;1597;51.572;6.992;2023-09-19T09:15:15;17.60;26.40
3172;DHT22;1597;51.572;6.992;2023-09-19T09:17:47;17.50;23.80
3172;DHT22;1597;51.572;6.992;2023-09-19T09:20:14;17.60;27.40
3172;DHT22;1597;51.572;6.992;2023-09-19T09:22:53;17.60;19.40
3172;DHT22;1597;51.572;6.992;2023-09-19T09:25:22;17.70;16.40
3172;DHT22;1597;51.572;6.992;2023-09-19T09:28:01;17.70;15.40
3172;DHT22;1597;51.572;6.992;2023-09-19T09:30:37;17.80;15.30
3172;DHT22;1597;51.572;6.992;2023-09-19T09:33:11;17.90;11.00
3172;DHT22;1597;51.572;6.992;2023-09-19T09:35:58;17.90;4.40
3172;DHT22;1597;51.572;6.992;2023-09-19T09:38:27;17.90;3.90
3172;DHT22;1597;51.572;6.992;2023-09-19T09:40:58;17.90;3.00
3172;DHT22;1597;51.572;6.992;2023-09-19T09:43:38;17.80;1.30
3172;DHT22;1597;51.572;6.992;2023-09-19T09:46:19;17.80;1.00
3172;DHT22;1597;51.572;6.992;2023-09-19T09:49:01;17.80;1.00
3172;DHT22;1597;51.572;6.992;2023-09-19T09:51:42;17.80;1.50
3172;DHT22;1597;51.572;6.992;2023-09-19T09:54:25;17.90;2.40
3172;DHT22;1597;51.572;6.992;2023-09-19T09:57:08;18.00;1.00
3172;DHT22;1597;51.572;6.992;2023-09-19T09:59:47;17.90;1.00
3172;DHT22;1597;51.572;6.992;2023-09-19T10:02:27;17.90;1.00
3172;DHT22;1597;51.572;6.992;2023-09-19T10:07:50;17.90;1.00
3172;DHT22;1597;51.572;6.992;2023-09-19T10:10:38;18.00;1.00
3172;DHT22;1597;51.572;6.992;2023-09-19T10:13:12;18.00;1.00
3172;DHT22;1597;51.572;6.992;2023-09-19T10:15:43;18.10;2.20
3172;DHT22;1597;51.572;6.992;2023-09-19T10:18:15;18.10;1.00
3172;DHT22;1597;51.572;6.992;2023-09-19T10:20:46;18.10;1.00
3172;DHT22;1597;51.572;6.992;2023-09-19T10:23:14;18.20;1.00
3172;DHT22;1597;51.572;6.992;2023-09-19T10:25:48;18.30;1.00
3172;DHT22;1597;51.572;6.992;2023-09-19T10:28:16;18.40;1.00
3172;DHT22;1597;51.572;6.992;2023-09-19T10:30:49;18.40;1.00
3172;DHT22;1597;51.572;6.992;2023-09-19T10:33:24;18.40;1.00
3172;DHT22;1597;51.572;6.992;2023-09-19T10:35:53;18.60;1.00
3172;DHT22;1597;51.572;6.992;2023-09-19T10:38:24;18.60;1.00
3172;DHT22;1597;51.572;6.992;2023-09-19T10:40:51;18.60;1.00
3172;DHT22;1597;51.572;6.992;2023-09-19T10:43:20;18.60;1.00
3172;DHT22;1597;51.572;6.992;2023-09-19T10:45:48;18.60;1.00
3172;DHT22;1597;51.572;6.992;2023-09-19T10:48:17;18.50;1.00
3172;DHT22;1597;51.572;6.992;2023-09-19T10:51:39;18.50;1.00
3172;DHT22;1597;51.572;6.992;2023-09-19T10:54:06;18.40;1.00
3172;DHT22;1597;51.572;6.992;2023-09-19T10:56:43;18.40;1.00
3172;DHT22;1597;51.572;6.992;2023-09-19T10:59:18;18.50;1.00
3172;DHT22;1597;51.572;6.992;2023-09-19T11:15:01;19.40;1.00
3172;DHT22;1597;51.572;6.992;2023-09-19T11:17:38;19.50;1.00
3172;DHT22;1597;51.572;6.992;2023-09-19T11:30:38;19.40;1.00
3172;DHT22;1597;51.572;6.992;2023-09-19T11:33:31;19.50;1.00
3172;DHT22;1597;51.572;6.992;2023-09-19T11:36:11;19.60;1.00
3172;DHT22;1597;51.572;6.992;2023-09-19T11:43:52;19.60;1.00
3172;DHT22;1597;51.572;6.992;2023-09-19T11:49:16;19.60;1.00
3172;DHT22;1597;51.572;6.992;2023-09-19T11:51:50;19.60;1.00
3172;DHT22;1597;51.572;6.992;2023-09-19T11:54:20;19.60;1.00
3172;DHT22;1597;51.572;6.992;2023-09-19T11:56:51;19.70;1.00
3172;DHT22;1597;51.572;6.992;2023-09-19T11:59:27;19.80;1.00
3172;DHT22;1597;51.572;6.992;2023-09-19T12:01:56;20.00;1.00
3172;DHT22;1597;51.572;6.992;2023-09-19T12:04:36;20.10;1.00
3172;DHT22;1597;51.572;6.992;2023-09-19T12:07:11;20.10;1.00
3172;DHT22;1597;51.572;6.992;2023-09-19T12:12:22;20.10;1.00
3172;DHT22;1597;51.572;6.992;2023-09-19T12:14:53;20.00;1.00
3172;DHT22;1597;51.572;6.992;2023-09-19T12:17:20;19.90;1.00
3172;DHT22;1597;51.572;6.992;2023-09-19T12:19:50;19.90;1.00
3172;DHT22;1597;51.572;6.992;2023-09-19T12:22:17;19.80;1.00
3172;DHT22;1597;51.572;6.992;2023-09-19T12:24:44;19.80;1.00
3172;DHT22;1597;51.572;6.992;2023-09-19T12:27:11;19.80;1.00
3172;DHT22;1597;51.572;6.992;2023-09-19T12:29:46;19.70;1.00
3172;DHT22;1597;51.572;6.992;2023-09-19T12:32:15;19.80;1.00
3172;DHT22;1597;51.572;6.992;2023-09-19T12:34:53;19.80;1.00
3172;DHT22;1597;51.572;6.992;2023-09-19T12:37:20;19.80;1.00
3172;DHT22;1597;51.572;6.992;2023-09-19T12:39:48;19.90;1.00
3172;DHT22;1597;51.572;6.992;2023-09-19T12:42:25;20.00;1.00
3172;DHT22;1597;51.572;6.992;2023-09-19T12:44:57;20.10;1.00
3172;DHT22;1597;51.572;6.992;2023-09-19T12:47:26;20.10;1.00
3172;DHT22;1597;51.572;6.992;2023-09-19T12:50:13;20.10;1.00
3172;DHT22;1597;51.572;6.992;2023-09-19T12:52:49;20.20;1.00
3172;DHT22;1597;51.572;6.992;2023-09-19T12:55:29;20.30;1.00
3172;DHT22;1597;51.572;6.992;2023-09-19T12:58:13;20.40;1.00
3172;DHT22;1597;51.572;6.992;2023-09-19T13:00:44;20.50;1.00
3172;DHT22;1597;51.572;6.992;2023-09-19T13:08:31;20.40;1.00
3172;DHT22;1597;51.572;6.992;2023-09-19T13:11:10;20.30;1.00
3172;DHT22;1597;51.572;6.992;2023-09-19T13:14:19;20.30;1.00
3172;DHT22;1597;51.572;6.992;2023-09-19T13:17:06;20.20;1.00
3172;DHT22;1597;51.572;6.992;2023-09-19T13:19:45;20.20;1.00
3172;DHT22;1597;51.572;6.992;2023-09-19T13:27:56;20.40;1.00
3172;DHT22;1597;51.572;6.992;2023-09-19T13:30:25;20.50;1.00
3172;DHT22;1597;51.572;6.992;2023-09-19T13:33:05;20.60;1.00
3172;DHT22;1597;51.572;6.992;2023-09-19T13:35:32;20.60;1.00
3172;DHT22;1597;51.572;6.992;2023-09-19T13:37:58;20.60;1.00
3172;DHT22;1597;51.572;6.992;2023-09-19T13:40:24;20.50;1.00
3172;DHT22;1597;51.572;6.992;2023-09-19T13:42:56;20.40;1.00
3172;DHT22;1597;51.572;6.992;2023-09-19T13:45:22;20.40;1.00
3172;DHT22;1597;51.572;6.992;2023-09-19T13:47:50;20.40;1.00
3172;DHT22;1597;51.572;6.992;2023-09-19T13:50:16;20.30;1.00
3172;DHT22;1597;51.572;6.992;2023-09-19T13:52:44;20.30;1.00
3172;DHT22;1597;51.572;6.992;2023-09-19T13:55:09;20.20;1.00
3172;DHT22;1597;51.572;6.992;2023-09-19T13:57:35;20.20;1.00
3172;DHT22;1597;51.572;6.992;2023-09-19T14:00:01;20.10;1.00
3172;DHT22;1597;51.572;6.992;2023-09-19T14:02:27;20.10;1.00
3172;DHT22;1597;51.572;6.992;2023-09-19T14:04:53;20.10;1.00
3172;DHT22;1597;51.572;6.992;2023-09-19T14:07:19;20.20;1.00
3172;DHT22;1597;51.572;6.992;2023-09-19T14:09:45;20.20;1.00
3172;DHT22;1597;51.572;6.992;2023-09-19T14:12:11;20.10;1.00
3172;DHT22;1597;51.572;6.992;2023-09-19T14:14:37;20.10;1.00
3172;DHT22;1597;51.572;6.992;2023-09-19T14:17:04;20.10;1.00
3172;DHT22;1597;51.572;6.992;2023-09-19T14:19:32;20.10;1.00
3172;DHT22;1597;51.572;6.992;2023-09-19T14:21:58;20.10;1.00
3172;DHT22;1597;51.572;6.992;2023-09-19T14:24:24;20.20;1.00
3172;DHT22;1597;51.572;6.992;2023-09-19T14:26:50;20.20;1.00
3172;DHT22;1597;51.572;6.992;2023-09-19T14:29:16;20.10;1.00
3172;DHT22;1597;51.572;6.992;2023-09-19T14:31:42;20.10;1.00
3172;DHT22;1597;51.572;6.992;2023-09-19T14:34:08;20.10;1.00
3172;DHT22;1597;51.572;6.992;2023-09-19T14:36:37;20.00;1.00
3172;DHT22;1597;51.572;6.992;2023-09-19T14:39:06;20.00;1.00
3172;DHT22;1597;51.572;6.992;2023-09-19T14:41:33;20.00;1.00
3172;DHT22;1597;51.572;6.992;2023-09-19T14:43:59;20.00;1.00
3172;DHT22;1597;51.572;6.992;2023-09-19T14:46:27;20.10;1.00
3172;DHT22;1597;51.572;6.992;2023-09-19T14:48:53;20.00;1.00
3172;DHT22;1597;51.572;6.992;2023-09-19T14:51:19;20.00;1.00
3172;DHT22;1597;51.572;6.992;2023-09-19T14:53:46;19.90;1.00
3172;DHT22;1597;51.572;6.992;2023-09-19T14:56:12;19.90;1.00
3172;DHT22;1597;51.572;6.992;2023-09-19T14:58:41;19.90;1.00
3172;DHT22;1597;51.572;6.992;2023-09-19T15:01:12;19.90;1.00
3172;DHT22;1597;51.572;6.992;2023-09-19T15:03:40;20.00;1.00
3172;DHT22;1597;51.572;6.992;2023-09-19T15:06:08;20.00;1.00
3172;DHT22;1597;51.572;6.992;2023-09-19T15:08:38;20.20;1.00
3172;DHT22;1597;51.572;6.992;2023-09-19T15:11:05;20.00;1.00
3172;DHT22;1597;51.572;6.992;2023-09-19T15:13:36;20.00;1.00
3172;DHT22;1597;51.572;6.992;2023-09-19T15:16:07;19.90;1.00
3172;DHT22;1597;51.572;6.992;2023-09-19T15:18:37;19.90;1.00
3172;DHT22;1597;51.572;6.992;2023-09-19T15:21:08;19.80;1.00
3172;DHT22;1597;51.572;6.992;2023-09-19T15:23:36;19.80;1.00
3172;DHT22;1597;51.572;6.992;2023-09-19T15:26:14;19.80;1.00
3172;DHT22;1597;51.572;6.992;2023-09-19T15:28:42;19.80;1.00
3172;DHT22;1597;51.572;6.992;2023-09-19T15:31:10;19.80;1.00
3172;DHT22;1597;51.572;6.992;2023-09-19T15:33:37;19.80;1.00
3172;DHT22;1597;51.572;6.992;2023-09-19T15:36:07;19.80;1.00
3172;DHT22;1597;51.572;6.992;2023-09-19T15:41:26;19.80;1.00
3172;DHT22;1597;51.572;6.992;2023-09-19T15:44:00;19.90;1.00
3172;DHT22;1597;51.572;6.992;2023-09-19T15:46:27;19.90;1.00
3172;DHT22;1597;51.572;6.992;2023-09-19T15:48:55;19.90;1.00
3172;DHT22;1597;51.572;6.992;2023-09-19T15:51:21;19.90;1.00
3172;DHT22;1597;51.572;6.992;2023-09-19T15:53:49;19.80;1.00
3172;DHT22;1597;51.572;6.992;2023-09-19T15:56:19;19.80;1.00
3172;DHT22;1597;51.572;6.992;2023-09-19T15:58:52;19.80;1.00
3172;DHT22;1597;51.572;6.992;2023-09-19T16:01:19;19.80;1.00
3172;DHT22;1597;51.572;6.992;2023-09-19T16:03:51;19.70;1.00
3172;DHT22;1597;51.572;6.992;2023-09-19T16:06:22;19.70;1.00
3172;DHT22;1597;51.572;6.992;2023-09-19T16:08:54;19.80;1.00
3172;DHT22;1597;51.572;6.992;2023-09-19T16:11:22;19.80;1.00
3172;DHT22;1597;51.572;6.992;2023-09-19T16:13:49;19.80;1.00
3172;DHT22;1597;51.572;6.992;2023-09-19T16:16:17;19.70;1.00
3172;DHT22;1597;51.572;6.992;2023-09-19T16:18:52;19.70;1.00
3172;DHT22;1597;51.572;6.992;2023-09-19T16:21:21;19.80;1.00
3172;DHT22;1597;51.572;6.992;2023-09-19T16:23:48;19.70;1.00
3172;DHT22;1597;51.572;6.992;2023-09-19T16:26:17;19.70;1.00
3172;DHT22;1597;51.572;6.992;2023-09-19T16:28:47;19.60;1.00
3172;DHT22;1597;51.572;6.992;2023-09-19T16:31:15;19.60;1.00
3172;DHT22;1597;51.572;6.992;2023-09-19T16:33:44;19.60;1.00
3172;DHT22;1597;51.572;6.992;2023-09-19T16:36:16;19.60;1.00
3172;DHT22;1597;51.572;6.992;2023-09-19T16:38:44;19.60;1.00
3172;DHT22;1597;51.572;6.992;2023-09-19T16:41:11;19.60;1.00
3172;DHT22;1597;51.572;6.992;2023-09-19T16:43:38;19.60;1.00
3172;DHT22;1597;51.572;6.992;2023-09-19T16:46:06;19.50;1.00
3172;DHT22;1597;51.572;6.992;2023-09-19T16:48:42;19.50;1.00
3172;DHT22;1597;51.572;6.992;2023-09-19T16:51:12;19.50;1.00
3172;DHT22;1597;51.572;6.992;2023-09-19T16:53:39;19.40;1.00
3172;DHT22;1597;51.572;6.992;2023-09-19T16:56:11;19.40;1.00
3172;DHT22;1597;51.572;6.992;2023-09-19T16:58:44;19.50;1.00
3172;DHT22;1597;51.572;6.992;2023-09-19T17:01:15;19.40;1.00
3172;DHT22;1597;51.572;6.992;2023-09-19T17:03:44;19.40;1.00
3172;DHT22;1597;51.572;6.992;2023-09-19T17:06:12;19.40;1.00
3172;DHT22;1597;51.572;6.992;2023-09-19T17:08:40;19.50;1.00
3172;DHT22;1597;51.572;6.992;2023-09-19T17:11:10;19.40;1.00
3172;DHT22;1597;51.572;6.992;2023-09-19T17:13:39;19.40;1.00
3172;DHT22;1597;51.572;6.992;2023-09-19T17:16:10;19.40;1.00
3172;DHT22;1597;51.572;6.992;2023-09-19T17:18:37;19.40;1.00
3172;DHT22;1597;51.572;6.992;2023-09-19T17:21:05;19.40;1.00
3172;DHT22;1597;51.572;6.992;2023-09-19T17:23:32;19.40;1.00
3172;DHT22;1597;51.572;6.992;2023-09-19T17:26:06;19.50;1.00
3172;DHT22;1597;51.572;6.992;2023-09-19T17:28:35;19.50;1.00
3172;DHT22;1597;51.572;6.992;2023-09-19T17:31:02;19.40;1.00
3172;DHT22;1597;51.572;6.992;2023-09-19T17:33:33;19.50;1.00
3172;DHT22;1597;51.572;6.992;2023-09-19T17:36:10;19.40;1.00